sensor_id;sensor_type;location;lat;lon;timestamp;temperature;humidity
29345;DHT22;16339;48.748;2.222;2023-07-20T00:01:19;22.60;74.80
29345;DHT22;16339;48.748;2.222;2023-07-20T00:03:47;22.60;74.90
29345;DHT22;16339;48.748;2.222;2023-07-20T00:06:21;22.60;74.90
29345;DHT22;16339;48.748;2.222;2023-07-20T00:09:01;22.60;74.60
29345;DHT22;16339;48.748;2.222;2023-07-20T00:11:38;22.60;74.70
29345;DHT22;16339;48.748;2.222;2023-07-20T00:14:07;22.50;75.00
29345;DHT22;16339;48.748;2.222;2023-07-20T00:16:35;22.50;74.90
29345;DHT22;16339;48.748;2.222;2023-07-20T00:19:05;22.50;75.10
29345;DHT22;16339;48.748;2.222;2023-07-20T00:21:37;22.40;75.00
29345;DHT22;16339;48.748;2.222;2023-07-20T00:24:08;22.40;74.90
29345;DHT22;16339;48.748;2.222;2023-07-20T00:26:39;22.40;75.00
29345;DHT22;16339;48.748;2.222;2023-07-20T00:29:12;22.30;75.20
29345;DHT22;16339;48.748;2.222;2023-07-20T00:31:42;22.30;75.30
29345;DHT22;16339;48.748;2.222;2023-07-20T00:34:12;22.20;75.50
29345;DHT22;16339;48.748;2.222;2023-07-20T00:36:41;22.10;75.80
29345;DHT22;16339;48.748;2.222;2023-07-20T00:39:19;22.10;76.20
29345;DHT22;16339;48.748;2.222;2023-07-20T00:41:53;22.00;76.30
29345;DHT22;16339;48.748;2.222;2023-07-20T00:44:26;22.00;76.60
29345;DHT22;16339;48.748;2.222;2023-07-20T00:46:54;22.00;76.80
29345;DHT22;16339;48.748;2.222;2023-07-20T00:49:35;22.00;76.80
29345;DHT22;16339;48.748;2.222;2023-07-20T00:52:06;21.90;76.90
29345;DHT22;16339;48.748;2.222;2023-07-20T00:54:47;21.90;77.00
29345;DHT22;16339;48.748;2.222;2023-07-20T00:57:26;21.90;77.80
29345;DHT22;16339;48.748;2.222;2023-07-20T01:00:04;21.90;76.60
29345;DHT22;16339;48.748;2.222;2023-07-20T01:02:35;21.90;76.40
29345;DHT22;16339;48.748;2.222;2023-07-20T01:05:09;21.90;76.30
29345;DHT22;16339;48.748;2.222;2023-07-20T01:07:46;21.90;76.40
29345;DHT22;16339;48.748;2.222;2023-07-20T01:10:32;21.90;76.50
29345;DHT22;16339;48.748;2.222;2023-07-20T01:13:11;21.80;76.70
29345;DHT22;16339;48.748;2.222;2023-07-20T01:15:40;21.80;77.00
29345;DHT22;16339;48.748;2.222;2023-07-20T01:18:12;21.80;77.30
29345;DHT22;16339;48.748;2.222;2023-07-20T01:20:40;21.70;77.70
29345;DHT22;16339;48.748;2.222;2023-07-20T01:26:37;21.60;77.50
29345;DHT22;16339;48.748;2.222;2023-07-20T01:31:59;21.60;76.90
29345;DHT22;16339;48.748;2.222;2023-07-20T01:34:29;21.60;77.00
29345;DHT22;16339;48.748;2.222;2023-07-20T01:37:13;21.60;76.90
29345;DHT22;16339;48.748;2.222;2023-07-20T01:39:49;21.60;77.00
29345;DHT22;16339;48.748;2.222;2023-07-20T01:42:20;21.60;77.20
29345;DHT22;16339;48.748;2.222;2023-07-20T01:44:50;21.60;77.20
29345;DHT22;16339;48.748;2.222;2023-07-20T01:47:21;21.60;77.20
29345;DHT22;16339;48.748;2.222;2023-07-20T01:49:57;21.60;77.30
29345;DHT22;16339;48.748;2.222;2023-07-20T01:52:36;21.50;77.50
29345;DHT22;16339;48.748;2.222;2023-07-20T01:55:09;21.50;77.60
29345;DHT22;16339;48.748;2.222;2023-07-20T01:57:37;21.40;77.60
29345;DHT22;16339;48.748;2.222;2023-07-20T02:00:07;21.30;77.80
29345;DHT22;16339;48.748;2.222;2023-07-20T02:02:41;21.30;78.00
29345;DHT22;16339;48.748;2.222;2023-07-20T02:05:09;21.40;77.80
29345;DHT22;16339;48.748;2.222;2023-07-20T02:07:38;21.40;77.50
29345;DHT22;16339;48.748;2.222;2023-07-20T02:10:07;21.30;77.90
29345;DHT22;16339;48.748;2.222;2023-07-20T02:12:36;21.30;77.70
29345;DHT22;16339;48.748;2.222;2023-07-20T02:15:05;21.30;76.90
29345;DHT22;16339;48.748;2.222;2023-07-20T02:17:34;21.20;76.90
29345;DHT22;16339;48.748;2.222;2023-07-20T02:20:07;21.20;77.10
29345;DHT22;16339;48.748;2.222;2023-07-20T02:22:39;21.20;77.50
29345;DHT22;16339;48.748;2.222;2023-07-20T02:25:36;21.20;77.70
29345;DHT22;16339;48.748;2.222;2023-07-20T02:28:54;21.10;77.70
29345;DHT22;16339;48.748;2.222;2023-07-20T02:31:58;21.00;78.20
29345;DHT22;16339;48.748;2.222;2023-07-20T02:34:52;21.00;78.40
29345;DHT22;16339;48.748;2.222;2023-07-20T02:38:00;20.90;78.50
29345;DHT22;16339;48.748;2.222;2023-07-20T02:40:47;20.90;78.60
29345;DHT22;16339;48.748;2.222;2023-07-20T02:43:29;20.90;77.90
29345;DHT22;16339;48.748;2.222;2023-07-20T02:45:58;20.90;77.80
29345;DHT22;16339;48.748;2.222;2023-07-20T02:48:27;20.90;77.90
29345;DHT22;16339;48.748;2.222;2023-07-20T02:50:56;20.90;77.90
29345;DHT22;16339;48.748;2.222;2023-07-20T02:53:27;20.90;78.10
29345;DHT22;16339;48.748;2.222;2023-07-20T02:55:55;20.80;78.30
29345;DHT22;16339;48.748;2.222;2023-07-20T02:58:24;20.80;78.10
29345;DHT22;16339;48.748;2.222;2023-07-20T03:00:53;20.80;78.10
29345;DHT22;16339;48.748;2.222;2023-07-20T03:03:22;20.70;78.10
29345;DHT22;16339;48.748;2.222;2023-07-20T03:05:51;20.70;78.30
29345;DHT22;16339;48.748;2.222;2023-07-20T03:08:22;20.60;79.00
29345;DHT22;16339;48.748;2.222;2023-07-20T03:10:58;20.60;78.60
29345;DHT22;16339;48.748;2.222;2023-07-20T03:13:27;20.60;78.80
29345;DHT22;16339;48.748;2.222;2023-07-20T03:15:56;20.60;78.70
29345;DHT22;16339;48.748;2.222;2023-07-20T03:18:25;20.60;78.70
29345;DHT22;16339;48.748;2.222;2023-07-20T03:20:54;20.60;78.80
29345;DHT22;16339;48.748;2.222;2023-07-20T03:23:26;20.60;78.70
29345;DHT22;16339;48.748;2.222;2023-07-20T03:26:07;20.60;78.60
29345;DHT22;16339;48.748;2.222;2023-07-20T03:28:40;20.50;78.60
29345;DHT22;16339;48.748;2.222;2023-07-20T03:31:09;20.60;78.70
29345;DHT22;16339;48.748;2.222;2023-07-20T03:33:39;20.60;78.70
29345;DHT22;16339;48.748;2.222;2023-07-20T03:36:34;20.60;78.20
29345;DHT22;16339;48.748;2.222;2023-07-20T03:39:06;20.60;78.20
29345;DHT22;16339;48.748;2.222;2023-07-20T03:41:40;20.60;78.10
29345;DHT22;16339;48.748;2.222;2023-07-20T03:44:09;20.60;78.30
29345;DHT22;16339;48.748;2.222;2023-07-20T03:46:47;20.50;78.30
29345;DHT22;16339;48.748;2.222;2023-07-20T03:49:16;20.40;78.60
29345;DHT22;16339;48.748;2.222;2023-07-20T03:51:44;20.40;78.60
29345;DHT22;16339;48.748;2.222;2023-07-20T03:54:13;20.30;78.70
29345;DHT22;16339;48.748;2.222;2023-07-20T03:56:45;20.30;78.80
29345;DHT22;16339;48.748;2.222;2023-07-20T03:59:13;20.30;78.60
29345;DHT22;16339;48.748;2.222;2023-07-20T04:01:42;20.40;78.30
29345;DHT22;16339;48.748;2.222;2023-07-20T04:04:11;20.40;78.40
29345;DHT22;16339;48.748;2.222;2023-07-20T04:06:39;20.40;78.70
29345;DHT22;16339;48.748;2.222;2023-07-20T04:09:11;20.40;78.70
29345;DHT22;16339;48.748;2.222;2023-07-20T04:11:47;20.30;78.60
29345;DHT22;16339;48.748;2.222;2023-07-20T04:14:15;20.30;78.80
29345;DHT22;16339;48.748;2.222;2023-07-20T04:16:48;20.30;78.70
29345;DHT22;16339;48.748;2.222;2023-07-20T04:19:17;20.30;78.20
29345;DHT22;16339;48.748;2.222;2023-07-20T04:21:46;20.30;78.20
29345;DHT22;16339;48.748;2.222;2023-07-20T04:24:14;20.30;78.20
29345;DHT22;16339;48.748;2.222;2023-07-20T04:26:46;20.30;78.30
29345;DHT22;16339;48.748;2.222;2023-07-20T04:29:15;20.30;78.40
29345;DHT22;16339;48.748;2.222;2023-07-20T04:31:44;20.40;78.30
29345;DHT22;16339;48.748;2.222;2023-07-20T04:34:14;20.30;77.90
29345;DHT22;16339;48.748;2.222;2023-07-20T04:36:44;20.30;78.30
29345;DHT22;16339;48.748;2.222;2023-07-20T04:39:23;20.40;78.40
29345;DHT22;16339;48.748;2.222;2023-07-20T04:41:55;20.40;77.50
29345;DHT22;16339;48.748;2.222;2023-07-20T04:44:23;20.40;77.40
29345;DHT22;16339;48.748;2.222;2023-07-20T04:46:52;20.40;77.50
29345;DHT22;16339;48.748;2.222;2023-07-20T04:49:21;20.40;77.70
29345;DHT22;16339;48.748;2.222;2023-07-20T04:51:50;20.40;77.70
29345;DHT22;16339;48.748;2.222;2023-07-20T04:54:20;20.40;77.70
29345;DHT22;16339;48.748;2.222;2023-07-20T04:56:49;20.30;77.70
29345;DHT22;16339;48.748;2.222;2023-07-20T04:59:20;20.40;78.10
29345;DHT22;16339;48.748;2.222;2023-07-20T05:01:49;20.30;78.30
29345;DHT22;16339;48.748;2.222;2023-07-20T05:04:18;20.30;78.80
29345;DHT22;16339;48.748;2.222;2023-07-20T05:06:49;20.20;79.10
29345;DHT22;16339;48.748;2.222;2023-07-20T05:09:18;20.20;79.60
29345;DHT22;16339;48.748;2.222;2023-07-20T05:11:48;20.20;79.70
29345;DHT22;16339;48.748;2.222;2023-07-20T05:14:20;20.30;79.80
29345;DHT22;16339;48.748;2.222;2023-07-20T05:16:48;20.30;79.50
29345;DHT22;16339;48.748;2.222;2023-07-20T05:19:28;20.30;79.40
29345;DHT22;16339;48.748;2.222;2023-07-20T05:22:00;20.40;79.40
29345;DHT22;16339;48.748;2.222;2023-07-20T05:24:32;20.40;79.60
29345;DHT22;16339;48.748;2.222;2023-07-20T05:27:09;20.40;79.60
29345;DHT22;16339;48.748;2.222;2023-07-20T05:29:43;20.50;79.80
29345;DHT22;16339;48.748;2.222;2023-07-20T05:32:12;20.40;79.80
29345;DHT22;16339;48.748;2.222;2023-07-20T05:34:44;20.40;80.30
29345;DHT22;16339;48.748;2.222;2023-07-20T05:37:13;20.40;80.80
29345;DHT22;16339;48.748;2.222;2023-07-20T05:39:45;20.40;81.10
29345;DHT22;16339;48.748;2.222;2023-07-20T05:42:18;20.40;81.30
29345;DHT22;16339;48.748;2.222;2023-07-20T05:44:49;20.40;81.40
29345;DHT22;16339;48.748;2.222;2023-07-20T05:47:21;20.50;81.50
29345;DHT22;16339;48.748;2.222;2023-07-20T05:49:54;20.60;81.50
29345;DHT22;16339;48.748;2.222;2023-07-20T05:52:51;20.60;81.30
29345;DHT22;16339;48.748;2.222;2023-07-20T05:55:21;20.70;81.30
29345;DHT22;16339;48.748;2.222;2023-07-20T05:57:56;20.70;81.50
29345;DHT22;16339;48.748;2.222;2023-07-20T06:00:28;20.70;81.60
29345;DHT22;16339;48.748;2.222;2023-07-20T06:02:57;20.80;81.90
29345;DHT22;16339;48.748;2.222;2023-07-20T06:05:26;20.90;81.90
29345;DHT22;16339;48.748;2.222;2023-07-20T06:07:55;20.90;82.00
29345;DHT22;16339;48.748;2.222;2023-07-20T06:10:26;21.00;82.80
29345;DHT22;16339;48.748;2.222;2023-07-20T06:13:00;21.10;82.10
29345;DHT22;16339;48.748;2.222;2023-07-20T06:15:41;21.10;82.10
29345;DHT22;16339;48.748;2.222;2023-07-20T06:18:13;21.20;82.20
29345;DHT22;16339;48.748;2.222;2023-07-20T06:20:49;21.20;82.30
29345;DHT22;16339;48.748;2.222;2023-07-20T06:23:20;21.30;82.50
29345;DHT22;16339;48.748;2.222;2023-07-20T06:26:02;21.30;82.50
29345;DHT22;16339;48.748;2.222;2023-07-20T06:28:34;21.40;82.70
29345;DHT22;16339;48.748;2.222;2023-07-20T06:31:05;21.40;82.70
29345;DHT22;16339;48.748;2.222;2023-07-20T06:33:34;21.40;83.60
29345;DHT22;16339;48.748;2.222;2023-07-20T06:39:23;21.40;82.90
29345;DHT22;16339;48.748;2.222;2023-07-20T06:55:25;21.30;83.60
29345;DHT22;16339;48.748;2.222;2023-07-20T06:57:54;21.50;84.20
29345;DHT22;16339;48.748;2.222;2023-07-20T07:00:49;21.60;84.10
29345;DHT22;16339;48.748;2.222;2023-07-20T07:03:29;21.60;84.20
29345;DHT22;16339;48.748;2.222;2023-07-20T07:06:06;21.70;83.90
29345;DHT22;16339;48.748;2.222;2023-07-20T07:08:54;21.70;83.80
29345;DHT22;16339;48.748;2.222;2023-07-20T07:11:30;21.60;83.80
29345;DHT22;16339;48.748;2.222;2023-07-20T07:13:58;21.70;84.10
29345;DHT22;16339;48.748;2.222;2023-07-20T07:16:27;21.70;83.90
29345;DHT22;16339;48.748;2.222;2023-07-20T07:19:09;21.80;83.60
29345;DHT22;16339;48.748;2.222;2023-07-20T07:21:40;22.00;83.40
29345;DHT22;16339;48.748;2.222;2023-07-20T07:24:22;22.00;83.00
29345;DHT22;16339;48.748;2.222;2023-07-20T07:27:02;22.10;82.80
29345;DHT22;16339;48.748;2.222;2023-07-20T07:29:31;22.20;82.70
29345;DHT22;16339;48.748;2.222;2023-07-20T07:32:00;22.30;82.60
29345;DHT22;16339;48.748;2.222;2023-07-20T07:35:05;22.30;82.20
29345;DHT22;16339;48.748;2.222;2023-07-20T07:37:38;22.30;82.30
29345;DHT22;16339;48.748;2.222;2023-07-20T07:40:10;22.40;82.00
29345;DHT22;16339;48.748;2.222;2023-07-20T07:42:59;22.40;81.80
29345;DHT22;16339;48.748;2.222;2023-07-20T07:48:38;22.50;81.30
29345;DHT22;16339;48.748;2.222;2023-07-20T07:51:09;22.50;80.80
29345;DHT22;16339;48.748;2.222;2023-07-20T07:53:42;22.40;80.20
29345;DHT22;16339;48.748;2.222;2023-07-20T07:56:31;22.50;80.30
29345;DHT22;16339;48.748;2.222;2023-07-20T07:59:02;22.50;79.20
29345;DHT22;16339;48.748;2.222;2023-07-20T08:01:46;22.60;77.40
29345;DHT22;16339;48.748;2.222;2023-07-20T08:04:16;22.60;76.80
29345;DHT22;16339;48.748;2.222;2023-07-20T08:06:45;22.70;75.90
29345;DHT22;16339;48.748;2.222;2023-07-20T08:09:13;22.70;75.40
29345;DHT22;16339;48.748;2.222;2023-07-20T08:11:42;22.40;76.30
29345;DHT22;16339;48.748;2.222;2023-07-20T08:14:14;22.50;75.60
29345;DHT22;16339;48.748;2.222;2023-07-20T08:16:42;22.50;76.50
29345;DHT22;16339;48.748;2.222;2023-07-20T08:19:11;22.60;75.80
29345;DHT22;16339;48.748;2.222;2023-07-20T08:21:40;22.70;75.90
29345;DHT22;16339;48.748;2.222;2023-07-20T08:24:09;22.70;75.60
29345;DHT22;16339;48.748;2.222;2023-07-20T08:26:41;22.70;76.60
29345;DHT22;16339;48.748;2.222;2023-07-20T08:29:09;22.80;75.80
29345;DHT22;16339;48.748;2.222;2023-07-20T08:31:40;22.60;75.50
29345;DHT22;16339;48.748;2.222;2023-07-20T08:34:09;22.70;75.40
29345;DHT22;16339;48.748;2.222;2023-07-20T08:36:42;22.70;74.50
29345;DHT22;16339;48.748;2.222;2023-07-20T08:39:14;22.80;73.80
29345;DHT22;16339;48.748;2.222;2023-07-20T08:41:43;22.90;73.20
29345;DHT22;16339;48.748;2.222;2023-07-20T08:44:12;22.90;72.40
29345;DHT22;16339;48.748;2.222;2023-07-20T08:46:48;23.00;71.10
29345;DHT22;16339;48.748;2.222;2023-07-20T08:49:21;22.90;72.90
29345;DHT22;16339;48.748;2.222;2023-07-20T08:51:51;23.00;73.50
29345;DHT22;16339;48.748;2.222;2023-07-20T08:54:31;23.10;73.50
29345;DHT22;16339;48.748;2.222;2023-07-20T08:57:04;23.10;73.70
29345;DHT22;16339;48.748;2.222;2023-07-20T08:59:38;23.10;73.80
29345;DHT22;16339;48.748;2.222;2023-07-20T09:02:14;23.10;73.10
29345;DHT22;16339;48.748;2.222;2023-07-20T09:04:57;23.10;72.70
29345;DHT22;16339;48.748;2.222;2023-07-20T09:07:30;23.20;71.30
29345;DHT22;16339;48.748;2.222;2023-07-20T09:10:01;23.30;70.80
29345;DHT22;16339;48.748;2.222;2023-07-20T09:12:37;23.40;69.90
29345;DHT22;16339;48.748;2.222;2023-07-20T09:15:08;23.50;69.40
29345;DHT22;16339;48.748;2.222;2023-07-20T09:17:46;23.50;67.80
29345;DHT22;16339;48.748;2.222;2023-07-20T09:20:17;23.50;66.70
29345;DHT22;16339;48.748;2.222;2023-07-20T09:22:46;23.50;66.30
29345;DHT22;16339;48.748;2.222;2023-07-20T09:25:19;23.50;66.70
29345;DHT22;16339;48.748;2.222;2023-07-20T09:28:02;23.50;67.70
29345;DHT22;16339;48.748;2.222;2023-07-20T09:30:33;23.50;68.10
29345;DHT22;16339;48.748;2.222;2023-07-20T09:33:18;23.60;67.50
29345;DHT22;16339;48.748;2.222;2023-07-20T09:35:48;23.80;66.90
29345;DHT22;16339;48.748;2.222;2023-07-20T09:38:17;23.80;65.70
29345;DHT22;16339;48.748;2.222;2023-07-20T09:40:46;23.90;65.80
29345;DHT22;16339;48.748;2.222;2023-07-20T09:43:17;23.70;62.50
29345;DHT22;16339;48.748;2.222;2023-07-20T09:45:47;23.70;64.30
29345;DHT22;16339;48.748;2.222;2023-07-20T09:48:29;23.70;65.90
29345;DHT22;16339;48.748;2.222;2023-07-20T09:51:00;23.50;64.60
29345;DHT22;16339;48.748;2.222;2023-07-20T09:53:30;23.60;64.00
29345;DHT22;16339;48.748;2.222;2023-07-20T09:56:01;23.70;63.30
29345;DHT22;16339;48.748;2.222;2023-07-20T09:58:33;23.80;63.30
29345;DHT22;16339;48.748;2.222;2023-07-20T10:01:12;23.90;61.90
29345;DHT22;16339;48.748;2.222;2023-07-20T10:03:45;23.80;60.00
29345;DHT22;16339;48.748;2.222;2023-07-20T10:06:23;23.80;61.10
29345;DHT22;16339;48.748;2.222;2023-07-20T10:08:57;23.90;61.80
29345;DHT22;16339;48.748;2.222;2023-07-20T10:11:31;23.90;61.40
29345;DHT22;16339;48.748;2.222;2023-07-20T10:14:00;24.00;61.50
29345;DHT22;16339;48.748;2.222;2023-07-20T10:16:35;24.00;61.20
29345;DHT22;16339;48.748;2.222;2023-07-20T10:19:13;24.00;60.10
29345;DHT22;16339;48.748;2.222;2023-07-20T10:21:51;24.10;60.60
29345;DHT22;16339;48.748;2.222;2023-07-20T10:24:23;24.30;60.90
29345;DHT22;16339;48.748;2.222;2023-07-20T10:26:52;24.40;59.30
29345;DHT22;16339;48.748;2.222;2023-07-20T10:29:22;24.60;59.30
29345;DHT22;16339;48.748;2.222;2023-07-20T10:31:53;24.60;58.90
29345;DHT22;16339;48.748;2.222;2023-07-20T10:34:24;24.60;59.00
29345;DHT22;16339;48.748;2.222;2023-07-20T10:36:53;24.60;59.00
29345;DHT22;16339;48.748;2.222;2023-07-20T10:39:26;24.60;59.30
29345;DHT22;16339;48.748;2.222;2023-07-20T10:42:05;24.70;58.80
29345;DHT22;16339;48.748;2.222;2023-07-20T10:44:37;24.70;58.10
29345;DHT22;16339;48.748;2.222;2023-07-20T10:47:11;24.80;58.40
29345;DHT22;16339;48.748;2.222;2023-07-20T10:50:00;24.80;58.70
29345;DHT22;16339;48.748;2.222;2023-07-20T10:52:40;24.70;59.00
29345;DHT22;16339;48.748;2.222;2023-07-20T10:55:15;24.70;59.00
29345;DHT22;16339;48.748;2.222;2023-07-20T10:58:15;24.70;59.00
29345;DHT22;16339;48.748;2.222;2023-07-20T11:00:54;25.00;57.70
29345;DHT22;16339;48.748;2.222;2023-07-20T11:03:32;25.20;57.90
29345;DHT22;16339;48.748;2.222;2023-07-20T11:09:15;25.70;57.30
29345;DHT22;16339;48.748;2.222;2023-07-20T11:12:27;25.70;56.50
29345;DHT22;16339;48.748;2.222;2023-07-20T11:14:57;25.80;57.10
29345;DHT22;16339;48.748;2.222;2023-07-20T11:17:34;25.80;56.20
29345;DHT22;16339;48.748;2.222;2023-07-20T11:20:35;25.90;56.50
29345;DHT22;16339;48.748;2.222;2023-07-20T11:23:04;25.80;56.30
29345;DHT22;16339;48.748;2.222;2023-07-20T11:26:00;25.90;56.50
29345;DHT22;16339;48.748;2.222;2023-07-20T11:28:30;25.90;54.80
29345;DHT22;16339;48.748;2.222;2023-07-20T11:30:59;26.00;55.10
29345;DHT22;16339;48.748;2.222;2023-07-20T11:33:28;26.00;54.70
29345;DHT22;16339;48.748;2.222;2023-07-20T11:36:19;26.10;54.80
29345;DHT22;16339;48.748;2.222;2023-07-20T11:38:48;26.00;54.80
29345;DHT22;16339;48.748;2.222;2023-07-20T11:41:20;26.00;53.60
29345;DHT22;16339;48.748;2.222;2023-07-20T11:43:49;26.10;53.80
29345;DHT22;16339;48.748;2.222;2023-07-20T11:46:18;26.20;54.10
29345;DHT22;16339;48.748;2.222;2023-07-20T11:48:46;26.20;54.30
29345;DHT22;16339;48.748;2.222;2023-07-20T11:51:15;26.30;55.00
29345;DHT22;16339;48.748;2.222;2023-07-20T11:53:47;26.30;55.20
29345;DHT22;16339;48.748;2.222;2023-07-20T11:56:16;26.40;55.50
29345;DHT22;16339;48.748;2.222;2023-07-20T11:58:47;26.40;55.40
29345;DHT22;16339;48.748;2.222;2023-07-20T12:01:17;26.40;55.80
29345;DHT22;16339;48.748;2.222;2023-07-20T12:03:48;26.40;55.60
29345;DHT22;16339;48.748;2.222;2023-07-20T12:06:17;26.50;55.70
29345;DHT22;16339;48.748;2.222;2023-07-20T12:08:45;26.60;55.60
29345;DHT22;16339;48.748;2.222;2023-07-20T12:11:33;26.70;55.20
29345;DHT22;16339;48.748;2.222;2023-07-20T12:14:08;26.70;54.50
29345;DHT22;16339;48.748;2.222;2023-07-20T12:16:39;26.60;54.50
29345;DHT22;16339;48.748;2.222;2023-07-20T12:19:38;26.50;54.60
29345;DHT22;16339;48.748;2.222;2023-07-20T12:25:21;26.70;55.30
29345;DHT22;16339;48.748;2.222;2023-07-20T12:27:49;26.70;54.00
29345;DHT22;16339;48.748;2.222;2023-07-20T12:30:23;26.80;54.00
29345;DHT22;16339;48.748;2.222;2023-07-20T12:32:56;26.90;54.40
29345;DHT22;16339;48.748;2.222;2023-07-20T12:35:25;27.00;53.90
29345;DHT22;16339;48.748;2.222;2023-07-20T12:37:54;27.10;54.30
29345;DHT22;16339;48.748;2.222;2023-07-20T12:40:23;27.10;53.40
29345;DHT22;16339;48.748;2.222;2023-07-20T12:43:01;27.20;53.10
29345;DHT22;16339;48.748;2.222;2023-07-20T12:45:33;27.20;53.50
29345;DHT22;16339;48.748;2.222;2023-07-20T12:48:03;27.20;54.10
29345;DHT22;16339;48.748;2.222;2023-07-20T12:50:31;27.10;53.20
29345;DHT22;16339;48.748;2.222;2023-07-20T12:53:00;27.10;53.80
29345;DHT22;16339;48.748;2.222;2023-07-20T12:55:32;27.10;53.10
29345;DHT22;16339;48.748;2.222;2023-07-20T12:58:05;27.20;53.40
29345;DHT22;16339;48.748;2.222;2023-07-20T13:00:36;27.20;53.10
29345;DHT22;16339;48.748;2.222;2023-07-20T13:03:06;27.30;53.30
29345;DHT22;16339;48.748;2.222;2023-07-20T13:05:41;27.50;53.40
29345;DHT22;16339;48.748;2.222;2023-07-20T13:08:16;27.60;52.50
29345;DHT22;16339;48.748;2.222;2023-07-20T13:10:52;27.70;52.60
29345;DHT22;16339;48.748;2.222;2023-07-20T13:13:24;27.80;52.90
29345;DHT22;16339;48.748;2.222;2023-07-20T13:15:55;28.00;52.70
29345;DHT22;16339;48.748;2.222;2023-07-20T13:18:24;28.00;51.90
29345;DHT22;16339;48.748;2.222;2023-07-20T13:21:25;27.90;51.50
29345;DHT22;16339;48.748;2.222;2023-07-20T13:23:57;27.50;51.40
29345;DHT22;16339;48.748;2.222;2023-07-20T13:26:26;27.40;51.90
29345;DHT22;16339;48.748;2.222;2023-07-20T13:32:15;27.30;52.00
29345;DHT22;16339;48.748;2.222;2023-07-20T13:35:04;27.50;52.30
29345;DHT22;16339;48.748;2.222;2023-07-20T13:37:37;27.50;51.30
29345;DHT22;16339;48.748;2.222;2023-07-20T13:40:09;27.70;51.70
29345;DHT22;16339;48.748;2.222;2023-07-20T13:42:45;27.70;51.20
29345;DHT22;16339;48.748;2.222;2023-07-20T13:45:51;27.60;51.30
29345;DHT22;16339;48.748;2.222;2023-07-20T13:51:33;27.50;51.10
29345;DHT22;16339;48.748;2.222;2023-07-20T13:54:04;27.60;51.10
29345;DHT22;16339;48.748;2.222;2023-07-20T13:56:32;27.70;50.70
29345;DHT22;16339;48.748;2.222;2023-07-20T13:59:04;28.00;50.70
29345;DHT22;16339;48.748;2.222;2023-07-20T14:01:56;28.10;50.10
29345;DHT22;16339;48.748;2.222;2023-07-20T14:04:34;28.40;50.10
29345;DHT22;16339;48.748;2.222;2023-07-20T14:07:05;28.50;50.20
29345;DHT22;16339;48.748;2.222;2023-07-20T14:09:36;28.60;50.10
29345;DHT22;16339;48.748;2.222;2023-07-20T14:12:06;28.60;49.60
29345;DHT22;16339;48.748;2.222;2023-07-20T14:14:37;28.50;49.70
29345;DHT22;16339;48.748;2.222;2023-07-20T14:17:06;28.40;50.00
29345;DHT22;16339;48.748;2.222;2023-07-20T14:19:38;28.40;49.70
29345;DHT22;16339;48.748;2.222;2023-07-20T14:22:11;28.30;49.20
29345;DHT22;16339;48.748;2.222;2023-07-20T14:24:40;28.10;48.90
29345;DHT22;16339;48.748;2.222;2023-07-20T14:27:11;28.00;49.30
29345;DHT22;16339;48.748;2.222;2023-07-20T14:29:40;28.00;49.80
29345;DHT22;16339;48.748;2.222;2023-07-20T14:32:07;28.00;49.70
29345;DHT22;16339;48.748;2.222;2023-07-20T14:34:36;28.10;49.50
29345;DHT22;16339;48.748;2.222;2023-07-20T14:37:08;28.20;48.90
29345;DHT22;16339;48.748;2.222;2023-07-20T14:39:38;28.20;49.00
29345;DHT22;16339;48.748;2.222;2023-07-20T14:42:07;28.30;48.90
29345;DHT22;16339;48.748;2.222;2023-07-20T14:44:37;28.30;48.70
29345;DHT22;16339;48.748;2.222;2023-07-20T14:47:08;28.40;48.80
29345;DHT22;16339;48.748;2.222;2023-07-20T14:49:52;28.60;49.10
29345;DHT22;16339;48.748;2.222;2023-07-20T14:52:23;28.80;48.70
29345;DHT22;16339;48.748;2.222;2023-07-20T14:54:52;28.90;48.80
29345;DHT22;16339;48.748;2.222;2023-07-20T14:57:21;29.00;48.20
29345;DHT22;16339;48.748;2.222;2023-07-20T14:59:49;29.00;48.80
29345;DHT22;16339;48.748;2.222;2023-07-20T15:02:19;29.00;48.60
29345;DHT22;16339;48.748;2.222;2023-07-20T15:04:49;28.90;48.50
29345;DHT22;16339;48.748;2.222;2023-07-20T15:07:21;29.00;48.70
29345;DHT22;16339;48.748;2.222;2023-07-20T15:09:52;29.00;48.80
29345;DHT22;16339;48.748;2.222;2023-07-20T15:12:21;29.10;48.40
29345;DHT22;16339;48.748;2.222;2023-07-20T15:15:03;29.00;48.20
29345;DHT22;16339;48.748;2.222;2023-07-20T15:17:33;29.00;48.60
29345;DHT22;16339;48.748;2.222;2023-07-20T15:20:04;28.90;48.70
29345;DHT22;16339;48.748;2.222;2023-07-20T15:22:33;28.60;48.50
29345;DHT22;16339;48.748;2.222;2023-07-20T15:25:08;28.50;48.50
29345;DHT22;16339;48.748;2.222;2023-07-20T15:27:37;28.40;48.80
29345;DHT22;16339;48.748;2.222;2023-07-20T15:30:11;28.30;49.10
29345;DHT22;16339;48.748;2.222;2023-07-20T15:32:40;28.30;49.20
29345;DHT22;16339;48.748;2.222;2023-07-20T15:35:12;28.20;49.20
29345;DHT22;16339;48.748;2.222;2023-07-20T15:37:43;28.10;49.60
29345;DHT22;16339;48.748;2.222;2023-07-20T15:40:23;28.20;49.90
29345;DHT22;16339;48.748;2.222;2023-07-20T15:43:26;28.20;50.00
29345;DHT22;16339;48.748;2.222;2023-07-20T15:49:13;28.20;49.20
29345;DHT22;16339;48.748;2.222;2023-07-20T15:51:41;28.10;49.50
29345;DHT22;16339;48.748;2.222;2023-07-20T15:54:12;28.10;49.80
29345;DHT22;16339;48.748;2.222;2023-07-20T15:56:48;28.00;50.00
29345;DHT22;16339;48.748;2.222;2023-07-20T15:59:19;28.00;50.30
29345;DHT22;16339;48.748;2.222;2023-07-20T16:01:48;28.00;50.30
29345;DHT22;16339;48.748;2.222;2023-07-20T16:04:19;28.00;50.50
29345;DHT22;16339;48.748;2.222;2023-07-20T16:06:50;28.00;50.40
29345;DHT22;16339;48.748;2.222;2023-07-20T16:09:27;28.10;50.20
29345;DHT22;16339;48.748;2.222;2023-07-20T16:12:22;28.10;50.60
29345;DHT22;16339;48.748;2.222;2023-07-20T16:14:53;28.10;50.50
29345;DHT22;16339;48.748;2.222;2023-07-20T16:17:29;28.10;50.50
29345;DHT22;16339;48.748;2.222;2023-07-20T16:19:58;28.10;50.40
29345;DHT22;16339;48.748;2.222;2023-07-20T16:22:27;28.10;50.00
29345;DHT22;16339;48.748;2.222;2023-07-20T16:24:57;28.10;49.80
29345;DHT22;16339;48.748;2.222;2023-07-20T16:27:28;28.00;49.80
29345;DHT22;16339;48.748;2.222;2023-07-20T16:29:57;28.00;49.90
29345;DHT22;16339;48.748;2.222;2023-07-20T16:32:27;28.00;50.20
29345;DHT22;16339;48.748;2.222;2023-07-20T16:34:56;27.90;50.20
29345;DHT22;16339;48.748;2.222;2023-07-20T16:37:29;28.00;49.80
29345;DHT22;16339;48.748;2.222;2023-07-20T16:39:57;28.00;50.00
29345;DHT22;16339;48.748;2.222;2023-07-20T16:42:29;28.00;49.70
29345;DHT22;16339;48.748;2.222;2023-07-20T16:44:59;28.10;49.80
29345;DHT22;16339;48.748;2.222;2023-07-20T16:47:29;28.10;49.20
29345;DHT22;16339;48.748;2.222;2023-07-20T16:49:59;28.20;49.50
29345;DHT22;16339;48.748;2.222;2023-07-20T16:52:28;28.20;50.00